Time;durP1;ratioP1;P1;durP2;ratioP2;P2;SDS_P1;SDS_P2;PMS_P1;PMS_P2;Temp;Humidity;BMP_temperature;BMP_pressure;BME280_temperature;BME280_humidity;BME280_pressure;Samples;Min_cycle;Max_cycle;Signal;HPM_P1;HPM_P2
2022/07/25 17:05:24;;;;;;;9.27;3.85;;;26.60;55.40;;;;;;5024406;28;21024;-74
2022/07/25 17:10:40;;;;;;;9.65;6.40;;;26.60;60.60;;;;;;5030597;28;20443;-69
2022/07/25 17:13:27;;;;;;;11.38;7.55;;;26.60;60.00;;;;;;5012361;28;20072;-70
2022/07/25 17:16:14;;;;;;;10.32;6.65;;;26.30;60.90;;;;;;5001025;28;20116;-70
2022/07/25 17:19:02;;;;;;;11.07;7.10;;;26.40;61.40;;;;;;5000331;28;20057;-69
2022/07/25 17:21:49;;;;;;;11.38;8.23;;;26.30;61.80;;;;;;4986768;28;55256;-69
2022/07/25 17:24:44;;;;;;;10.95;7.90;;;26.30;62.40;;;;;;5103818;27;20483;-70
2022/07/25 17:27:12;;;;;;;13.55;8.15;;;26.20;63.20;;;;;;5094149;28;20044;-70
2022/07/25 17:29:39;;;;;;;11.05;8.18;;;26.10;63.70;;;;;;5053786;28;69910;-69
2022/07/25 17:32:07;;;;;;;16.00;8.27;;;26.20;63.80;;;;;;5051937;28;97246;-65
2022/07/25 17:34:34;;;;;;;15.82;7.80;;;26.10;64.50;;;;;;5074010;28;20063;-64
2022/07/25 17:37:01;;;;;;;38.25;8.32;;;25.90;65.10;;;;;;5069671;28;20059;-64
2022/07/25 17:39:32;;;;;;;12.85;7.07;;;25.70;65.20;;;;;;5054613;28;20816;-64
2022/07/25 17:42:00;;;;;;;13.30;7.85;;;25.50;65.80;;;;;;5070646;28;20080;-64
2022/07/25 17:44:27;;;;;;;9.13;7.00;;;25.60;66.10;;;;;;5053838;28;20796;-64
2022/07/25 17:46:54;;;;;;;8.48;6.90;;;25.50;65.00;;;;;;5054808;28;20058;-64
2022/07/25 17:49:21;;;;;;;10.30;6.28;;;25.40;65.50;;;;;;5070004;28;20413;-64
2022/07/25 17:51:48;;;;;;;12.35;6.20;;;25.20;65.10;;;;;;5072325;28;20083;-65
2022/07/25 17:54:15;;;;;;;10.38;6.20;;;25.10;64.90;;;;;;5055419;28;20772;-65
2022/07/25 17:56:44;;;;;;;9.90;5.68;;;25.10;65.00;;;;;;5052749;28;20057;-65
2022/07/25 17:59:11;;;;;;;9.45;6.00;;;25.10;65.00;;;;;;5072804;28;20049;-65
2022/07/25 18:01:38;;;;;;;10.00;6.38;;;25.00;65.40;;;;;;5059047;28;20052;-64
2022/07/25 18:04:05;;;;;;;7.93;5.43;;;24.90;65.20;;;;;;5039899;28;20424;-66
2022/07/25 18:06:33;;;;;;;11.35;5.35;;;24.90;65.20;;;;;;5068791;28;20040;-66
2022/07/25 18:09:00;;;;;;;8.75;5.78;;;24.80;65.10;;;;;;5055472;28;20097;-66
2022/07/25 18:11:27;;;;;;;6.28;5.65;;;24.90;65.00;;;;;;5053233;28;20523;-65
2022/07/25 18:13:54;;;;;;;10.90;5.63;;;24.80;65.00;;;;;;5057295;28;20055;-67
2022/07/25 18:16:21;;;;;;;14.82;6.20;;;24.80;65.10;;;;;;5037561;28;20680;-66
2022/07/25 18:18:49;;;;;;;10.87;6.00;;;24.60;65.50;;;;;;5036586;28;20126;-66
2022/07/25 18:21:16;;;;;;;9.77;6.10;;;24.50;65.90;;;;;;5057024;28;20048;-77
2022/07/25 18:23:43;;;;;;;6.28;4.95;;;24.70;65.40;;;;;;5056196;28;20154;-77
2022/07/25 18:26:10;;;;;;;7.40;5.30;;;24.70;65.10;;;;;;5053720;28;20468;-78
2022/07/25 18:28:37;;;;;;;7.40;5.60;;;24.60;64.90;;;;;;5056451;28;21041;-80
2022/07/25 18:31:04;;;;;;;5.80;4.82;;;24.60;65.00;;;;;;5066095;28;20057;-78
2022/07/25 18:33:31;;;;;;;6.97;4.85;;;24.50;65.20;;;;;;5067822;28;20055;-79
2022/07/25 18:35:58;;;;;;;6.73;4.53;;;24.50;65.00;;;;;;5058009;28;20048;-76
2022/07/25 18:38:26;;;;;;;7.45;4.63;;;24.50;64.80;;;;;;5037553;28;20049;-76
2022/07/25 18:40:53;;;;;;;8.32;4.95;;;24.60;65.40;;;;;;5037854;28;20549;-77
2022/07/25 18:43:22;;;;;;;9.27;5.28;;;24.40;67.10;;;;;;5027756;28;20052;-75
2022/07/25 18:45:49;;;;;;;10.80;5.63;;;24.30;68.50;;;;;;5036223;28;20047;-76
2022/07/25 18:48:17;;;;;;;9.27;5.25;;;24.20;69.00;;;;;;5034472;28;20049;-78
2022/07/25 18:50:43;;;;;;;8.40;5.10;;;24.20;69.20;;;;;;5055804;28;20045;-74
2022/07/25 18:53:10;;;;;;;8.05;4.60;;;24.10;69.20;;;;;;5057076;28;20041;-76
2022/07/25 18:55:38;;;;;;;7.53;5.20;;;24.30;67.80;;;;;;5054790;28;20062;-77
2022/07/25 18:58:04;;;;;;;5.72;4.55;;;24.30;68.20;;;;;;5071599;28;20048;-76
2022/07/25 19:00:32;;;;;;;7.13;4.53;;;24.40;67.90;;;;;;5047520;28;20053;-76
2022/07/25 19:02:59;;;;;;;11.38;4.60;;;24.40;67.50;;;;;;5051152;28;20142;-76
2022/07/25 19:05:26;;;;;;;12.98;4.93;;;24.50;67.70;;;;;;5022978;28;20478;-76
2022/07/25 19:07:53;;;;;;;9.30;4.50;;;24.50;68.30;;;;;;5037182;28;20477;-76
2022/07/25 19:10:21;;;;;;;8.75;4.60;;;24.50;70.90;;;;;;5040997;28;20048;-74
2022/07/25 19:12:49;;;;;;;;;;;24.50;70.00;;;;;;5058451;28;20106;-75
2022/07/25 19:15:16;;;;;;;10.00;4.63;;;24.50;71.00;;;;;;5056146;28;20366;-77
2022/07/25 19:17:43;;;;;;;7.20;4.78;;;24.50;71.20;;;;;;5055270;28;20059;-76
2022/07/25 19:20:10;;;;;;;9.80;4.93;;;24.50;71.80;;;;;;5055377;28;20057;-76
2022/07/25 19:22:36;;;;;;;11.32;4.90;;;24.50;71.40;;;;;;5057712;28;20053;-75
2022/07/25 19:25:07;;;;;;;7.10;4.97;;;24.50;73.00;;;;;;5024343;28;20177;-76
2022/07/25 19:27:34;;;;;;;13.60;5.05;;;24.50;74.60;;;;;;5054334;28;20044;-76
2022/07/25 19:30:03;;;;;;;6.85;4.43;;;24.40;74.30;;;;;;5043235;28;20125;-76
2022/07/25 19:32:30;;;;;;;9.30;4.80;;;24.40;73.70;;;;;;5053368;28;20048;-76
2022/07/25 19:34:57;;;;;;;7.20;4.45;;;24.30;73.30;;;;;;5057385;28;20056;-74
2022/07/25 19:37:24;;;;;;;7.15;4.95;;;24.20;73.90;;;;;;5054506;28;20041;-76
2022/07/25 19:39:52;;;;;;;9.50;4.30;;;24.20;74.20;;;;;;5057224;28;20048;-76
2022/07/25 19:42:19;;;;;;;6.38;4.22;;;24.20;74.50;;;;;;5025659;28;20047;-76
2022/07/25 19:44:46;;;;;;;5.47;4.57;;;24.20;74.40;;;;;;5042069;28;20057;-75
2022/07/25 19:47:13;;;;;;;8.25;4.28;;;24.20;74.80;;;;;;5034856;28;20052;-76
2022/07/25 19:49:40;;;;;;;7.15;4.55;;;24.20;75.00;;;;;;5039930;28;20135;-75
2022/07/25 19:52:07;;;;;;;9.23;4.30;;;24.20;75.30;;;;;;5054868;28;20117;-73
2022/07/25 19:54:34;;;;;;;6.80;4.22;;;24.20;74.40;;;;;;5053093;28;20489;-77
2022/07/25 19:57:03;;;;;;;7.15;4.40;;;24.10;74.20;;;;;;5039733;28;20052;-75
2022/07/25 19:59:30;;;;;;;6.32;4.50;;;24.00;74.40;;;;;;5054737;28;20056;-76
2022/07/25 20:01:57;;;;;;;6.93;4.43;;;24.10;74.90;;;;;;5052953;28;20520;-76
2022/07/25 20:04:25;;;;;;;8.25;5.90;;;24.00;75.40;;;;;;5057858;28;20091;-77
2022/07/25 20:06:51;;;;;;;7.38;4.80;;;23.90;75.70;;;;;;5037335;28;20305;-75
2022/07/25 20:09:19;;;;;;;9.85;4.22;;;23.90;75.80;;;;;;5038448;28;20104;-75
2022/07/25 20:11:46;;;;;;;7.25;4.40;;;23.80;76.30;;;;;;5040221;28;20131;-76
2022/07/25 20:14:13;;;;;;;9.23;4.35;;;23.90;76.20;;;;;;5037293;28;20121;-76
2022/07/25 20:16:40;;;;;;;6.72;4.05;;;23.90;76.80;;;;;;5039206;28;20163;-75
2022/07/25 20:19:07;;;;;;;7.88;4.10;;;23.90;76.80;;;;;;5051473;28;20080;-76
2022/07/25 20:21:35;;;;;;;6.95;3.60;;;23.70;75.30;;;;;;5023341;28;20052;-77
2022/07/25 20:24:03;;;;;;;9.32;3.70;;;23.70;74.40;;;;;;5055162;28;20114;-78
2022/07/25 20:26:30;;;;;;;5.85;3.53;;;23.70;74.10;;;;;;5023639;28;20060;-77
2022/07/25 20:28:57;;;;;;;5.25;4.07;;;23.70;74.60;;;;;;5053287;28;20044;-77
2022/07/25 20:31:24;;;;;;;4.82;3.30;;;23.60;75.00;;;;;;5050505;28;20052;-76
2022/07/25 20:33:51;;;;;;;5.53;3.72;;;23.50;75.00;;;;;;5053408;28;20316;-77
2022/07/25 20:36:19;;;;;;;10.77;3.90;;;23.30;75.70;;;;;;5040168;28;20040;-76
2022/07/25 20:38:46;;;;;;;7.72;3.50;;;23.40;75.60;;;;;;5038685;28;20145;-77
2022/07/25 20:41:13;;;;;;;8.45;3.60;;;23.50;75.10;;;;;;5038809;28;20044;-77
2022/07/25 20:43:40;;;;;;;5.78;3.83;;;23.40;75.70;;;;;;5054348;28;20055;-77
2022/07/25 20:46:07;;;;;;;5.78;3.25;;;23.40;75.20;;;;;;5054234;28;20135;-77
2022/07/25 20:48:34;;;;;;;7.00;3.60;;;23.50;75.00;;;;;;5031610;28;20110;-76
2022/07/25 20:51:01;;;;;;;6.72;3.15;;;23.50;74.80;;;;;;5020767;28;20044;-76
2022/07/25 20:53:28;;;;;;;6.05;3.25;;;23.40;74.40;;;;;;5037314;28;20048;-78
2022/07/25 20:55:55;;;;;;;7.22;3.40;;;23.50;74.60;;;;;;5052865;28;20041;-77
2022/07/25 20:58:22;;;;;;;6.97;3.10;;;23.40;74.40;;;;;;5034824;28;20505;-76
2022/07/25 21:00:49;;;;;;;8.50;3.15;;;23.40;74.70;;;;;;5049867;28;20044;-78
2022/07/25 21:03:16;;;;;;;5.45;3.10;;;23.30;74.70;;;;;;5004879;28;20052;-76
2022/07/25 21:05:42;;;;;;;4.13;3.08;;;23.40;74.40;;;;;;5050355;28;20174;-78
2022/07/25 21:08:10;;;;;;;8.23;3.80;;;23.40;74.20;;;;;;5036944;28;20500;-77
2022/07/25 21:10:37;;;;;;;5.97;3.20;;;23.40;74.20;;;;;;5035255;28;20662;-78
2022/07/25 21:13:04;;;;;;;7.13;3.28;;;23.40;72.90;;;;;;5040175;28;20344;-77
2022/07/25 21:15:32;;;;;;;8.50;3.70;;;23.40;72.20;;;;;;5053692;28;20821;-76
2022/07/25 21:17:59;;;;;;;7.18;3.33;;;23.20;71.80;;;;;;5017693;28;20082;-75
2022/07/25 21:20:26;;;;;;;7.53;3.35;;;23.20;70.90;;;;;;5038315;28;20048;-76
2022/07/25 21:22:54;;;;;;;7.80;2.90;;;23.10;70.00;;;;;;5050048;28;20053;-79
2022/07/25 21:25:20;;;;;;;8.93;3.42;;;23.00;69.20;;;;;;5052080;28;20145;-76
2022/07/25 21:27:47;;;;;;;9.27;3.50;;;22.90;69.30;;;;;;5053636;28;20045;-77
2022/07/25 21:30:14;;;;;;;8.48;3.50;;;23.00;68.70;;;;;;5051392;28;20715;-76
2022/07/25 21:32:41;;;;;;;8.63;3.40;;;22.80;68.80;;;;;;5051911;28;20056;-77
2022/07/25 21:35:09;;;;;;;8.57;2.97;;;22.70;68.40;;;;;;5036508;28;20045;-76
2022/07/25 21:37:35;;;;;;;8.30;3.20;;;22.80;68.60;;;;;;5038201;28;20051;-76
2022/07/25 21:40:03;;;;;;;5.90;2.80;;;22.80;68.20;;;;;;5032845;28;20131;-76
2022/07/25 21:42:30;;;;;;;6.37;3.07;;;22.80;67.50;;;;;;5032708;28;20068;-75
2022/07/25 21:44:57;;;;;;;9.17;3.23;;;22.70;67.50;;;;;;5020065;28;20056;-76
2022/07/25 21:47:24;;;;;;;9.35;3.00;;;22.70;67.40;;;;;;5031847;28;20329;-74
2022/07/25 21:52:38;;;;;;;13.50;3.13;;;22.70;66.90;;;;;;5039176;28;20052;-72
2022/07/25 21:55:05;;;;;;;8.60;2.90;;;22.70;66.60;;;;;;5037835;28;20041;-71
2022/07/25 21:57:32;;;;;;;10.15;3.17;;;22.70;66.40;;;;;;5018947;28;20044;-70
2022/07/25 21:59:59;;;;;;;13.65;3.45;;;22.70;66.10;;;;;;5051851;28;20042;-71
2022/07/25 22:02:26;;;;;;;8.88;3.33;;;22.70;66.20;;;;;;5033493;28;20506;-72
2022/07/25 22:04:52;;;;;;;9.38;3.28;;;22.70;66.30;;;;;;5036601;28;20045;-71
2022/07/25 22:07:19;;;;;;;7.60;3.00;;;22.60;66.00;;;;;;4994026;28;20046;-71
2022/07/25 22:09:46;;;;;;;5.60;3.35;;;22.60;66.10;;;;;;5050274;28;20185;-71
2022/07/25 22:12:13;;;;;;;7.70;3.55;;;22.60;66.20;;;;;;5034812;28;20493;-71
2022/07/25 22:14:40;;;;;;;9.20;3.60;;;22.60;66.40;;;;;;5038736;28;20049;-71
2022/07/25 22:17:08;;;;;;;6.72;3.50;;;22.50;66.30;;;;;;5053555;28;20412;-71
2022/07/25 22:19:34;;;;;;;5.63;3.22;;;22.60;66.40;;;;;;5055477;28;20134;-71
2022/07/25 22:22:03;;;;;;;9.55;3.28;;;22.60;66.70;;;;;;5049981;28;20084;-72
2022/07/25 22:24:30;;;;;;;8.65;3.42;;;22.50;67.20;;;;;;5044105;28;20152;-71
2022/07/25 22:26:57;;;;;;;9.43;3.38;;;22.60;66.80;;;;;;5053566;28;20371;-71
2022/07/25 22:29:24;;;;;;;6.40;2.70;;;22.50;67.00;;;;;;5040339;28;20041;-71
2022/07/25 22:31:51;;;;;;;6.63;3.38;;;22.50;66.30;;;;;;5057159;28;20041;-71
2022/07/25 22:34:18;;;;;;;8.88;3.55;;;22.50;66.40;;;;;;5056075;28;20049;-71
2022/07/25 22:36:45;;;;;;;4.47;2.90;;;22.30;66.50;;;;;;5024505;28;20106;-71
2022/07/25 22:39:12;;;;;;;8.52;3.03;;;22.20;66.50;;;;;;5036766;28;20221;-72
2022/07/25 22:41:39;;;;;;;6.97;3.15;;;22.10;66.70;;;;;;5048965;28;20076;-72
2022/07/25 22:44:06;;;;;;;10.40;3.67;;;22.10;66.40;;;;;;5054329;28;20151;-73
2022/07/25 22:46:33;;;;;;;9.85;3.33;;;22.00;67.10;;;;;;5035031;28;20068;-71
2022/07/25 22:49:00;;;;;;;10.68;3.40;;;21.90;67.00;;;;;;5054171;28;20056;-71
2022/07/25 22:51:27;;;;;;;9.80;3.33;;;21.90;67.40;;;;;;5052368;28;20044;-71
2022/07/25 22:53:56;;;;;;;6.55;3.10;;;21.80;66.80;;;;;;5038295;28;20076;-71
2022/07/25 22:56:23;;;;;;;7.25;3.20;;;21.70;67.10;;;;;;5036951;28;20072;-71
2022/07/25 22:58:50;;;;;;;9.85;3.30;;;21.60;67.50;;;;;;5013765;28;20056;-71
2022/07/25 23:01:17;;;;;;;8.43;2.97;;;21.70;67.30;;;;;;5054789;28;20059;-71
2022/07/25 23:03:45;;;;;;;10.00;3.60;;;21.60;67.70;;;;;;5013042;28;20041;-71
2022/07/25 23:06:11;;;;;;;7.40;3.35;;;21.80;67.10;;;;;;5040501;28;20056;-71
2022/07/25 23:08:38;;;;;;;11.10;3.17;;;21.80;67.50;;;;;;5051318;28;20443;-71
2022/07/25 23:11:05;;;;;;;8.25;3.65;;;21.80;67.10;;;;;;5048210;28;20036;-71
2022/07/25 23:13:35;;;;;;;11.93;2.63;;;21.70;66.40;;;;;;5033445;28;20056;-70
2022/07/25 23:16:02;;;;;;;6.85;2.63;;;21.70;65.60;;;;;;5033362;28;20076;-71
2022/07/25 23:18:29;;;;;;;8.18;3.00;;;21.60;65.30;;;;;;5039506;28;20051;-72
2022/07/25 23:20:56;;;;;;;8.60;2.80;;;21.40;64.90;;;;;;5036062;28;20059;-72
2022/07/25 23:23:23;;;;;;;7.43;2.60;;;21.40;64.60;;;;;;5055660;28;20159;-71
2022/07/25 23:25:50;;;;;;;9.85;2.65;;;21.40;63.80;;;;;;5055366;28;20052;-71
2022/07/25 23:28:18;;;;;;;9.98;2.70;;;21.40;64.20;;;;;;5002960;28;20058;-71
2022/07/25 23:30:44;;;;;;;8.80;2.50;;;21.40;63.20;;;;;;5057595;28;20109;-72
2022/07/25 23:33:11;;;;;;;8.65;2.22;;;21.40;63.40;;;;;;5000627;28;20957;-70
2022/07/25 23:35:38;;;;;;;7.70;2.25;;;21.30;63.40;;;;;;5035643;28;20051;-71
2022/07/25 23:38:05;;;;;;;7.40;2.42;;;21.30;63.10;;;;;;5029279;28;20049;-71
2022/07/25 23:40:32;;;;;;;7.35;2.28;;;21.30;63.00;;;;;;5057316;28;20082;-71
2022/07/25 23:42:59;;;;;;;10.85;2.38;;;21.20;62.70;;;;;;5023770;28;20041;-71
2022/07/25 23:45:26;;;;;;;10.75;2.50;;;21.20;63.00;;;;;;5016924;28;20453;-71
2022/07/25 23:47:54;;;;;;;7.38;2.20;;;21.20;63.30;;;;;;5015280;28;20061;-70
2022/07/25 23:50:22;;;;;;;7.40;2.40;;;21.10;63.20;;;;;;5047047;28;20101;-72
2022/07/25 23:52:49;;;;;;;10.32;2.40;;;21.20;63.20;;;;;;5056037;28;20271;-71
2022/07/25 23:55:16;;;;;;;6.50;2.58;;;21.20;63.20;;;;;;5015927;28;20042;-71
2022/07/25 23:57:43;;;;;;;9.88;2.25;;;21.10;62.90;;;;;;5038628;28;20148;-71
